createdAt,value
2022-12-25T00:00:20.487Z,46.33
2022-12-25T00:03:17.938Z,18.05
2022-12-25T00:06:16.024Z,27.77
2022-12-25T00:09:12.858Z,27.15
2022-12-25T00:12:09.646Z,14.27
2022-12-25T00:15:06.950Z,16.25
2022-12-25T00:18:03.821Z,19.38
2022-12-25T00:21:05.329Z,26.90
2022-12-25T00:24:03.425Z,23.52
2022-12-25T00:27:00.300Z,14.25
2022-12-25T00:29:57.119Z,21.75
2022-12-25T00:32:54.018Z,22.70
2022-12-25T00:35:59.186Z,26.02
2022-12-25T00:38:56.091Z,21.70
2022-12-25T00:42:11.268Z,26.10
2022-12-25T00:45:08.568Z,20.48
2022-12-25T00:48:05.658Z,28.65
2022-12-25T00:51:06.957Z,29.40
2022-12-25T00:54:03.895Z,17.58
2022-12-25T00:57:00.734Z,19.23
2022-12-25T00:59:57.544Z,20.75
2022-12-25T01:02:54.526Z,20.60
2022-12-25T01:06:03.886Z,18.70
2022-12-25T01:09:19.064Z,20.85
2022-12-25T01:12:15.856Z,13.73
2022-12-25T01:15:13.306Z,11.18
2022-12-25T01:18:12.868Z,17.63
2022-12-25T01:21:12.381Z,17.33
2022-12-25T01:24:09.195Z,17.55
2022-12-25T01:27:06.007Z,18.30
2022-12-25T01:30:02.881Z,12.45
2022-12-25T01:32:59.732Z,17.33
2022-12-25T01:35:57.801Z,17.67
2022-12-25T01:38:54.931Z,13.95
2022-12-25T01:41:51.816Z,20.42
2022-12-25T01:44:51.139Z,12.98
2022-12-25T01:47:48.165Z,16.45
2022-12-25T01:50:52.257Z,18.60
2022-12-25T01:53:49.079Z,14.57
2022-12-25T01:56:49.116Z,19.98
2022-12-25T01:59:46.773Z,18.88
2022-12-25T02:02:45.162Z,19.35
2022-12-25T02:05:42.398Z,24.58
2022-12-25T02:08:40.796Z,24.33
2022-12-25T02:11:56.362Z,21.95
2022-12-25T02:15:03.073Z,15.50
2022-12-25T02:18:15.687Z,23.92
2022-12-25T02:21:23.178Z,18.80
2022-12-25T02:24:41.671Z,19.98
2022-12-25T02:27:58.764Z,22.00
2022-12-25T02:31:32.766Z,21.90
2022-12-25T02:34:50.289Z,15.60
2022-12-25T02:38:04.680Z,21.17
2022-12-25T02:41:13.049Z,15.98
2022-12-25T02:44:37.985Z,18.88
2022-12-25T02:48:09.544Z,20.00
2022-12-25T02:51:31.018Z,17.85
2022-12-25T02:54:54.965Z,24.90
2022-12-25T02:58:14.718Z,17.60
2022-12-25T03:01:40.944Z,16.75
2022-12-25T03:04:57.872Z,12.30
2022-12-25T03:07:58.746Z,16.10
2022-12-25T03:14:38.933Z,21.80
2022-12-25T03:17:36.286Z,23.33
2022-12-25T03:20:53.677Z,25.83
2022-12-25T03:24:16.240Z,16.55
2022-12-25T03:27:13.052Z,23.48
2022-12-25T03:30:29.437Z,24.73
2022-12-25T03:34:17.556Z,26.40
2022-12-25T03:38:15.292Z,25.48
2022-12-25T03:42:03.637Z,23.02
2022-12-25T03:45:27.345Z,20.52
2022-12-25T03:48:44.627Z,17.45
2022-12-25T03:52:02.997Z,16.63
2022-12-25T03:55:24.599Z,22.63
2022-12-25T03:58:44.185Z,21.38
2022-12-25T04:02:00.032Z,32.58
2022-12-25T04:05:15.762Z,21.55
2022-12-25T04:08:31.123Z,25.63
2022-12-25T04:11:46.463Z,23.85
2022-12-25T04:15:01.945Z,21.38
2022-12-25T04:18:17.292Z,23.55
2022-12-25T04:21:32.819Z,21.17
2022-12-25T04:24:48.148Z,18.92
2022-12-25T04:28:03.614Z,20.90
2022-12-25T04:31:20.164Z,20.77
2022-12-25T04:34:36.345Z,15.48
2022-12-25T04:37:33.169Z,24.77
2022-12-25T04:40:29.974Z,15.30
2022-12-25T04:43:27.161Z,22.60
2022-12-25T04:46:23.993Z,17.73
2022-12-25T04:49:20.961Z,21.88
2022-12-25T04:52:17.783Z,24.13
2022-12-25T04:55:14.606Z,18.45
2022-12-25T04:58:11.800Z,18.58
2022-12-25T05:01:08.748Z,14.48
2022-12-25T05:04:05.760Z,16.90
2022-12-25T05:07:02.555Z,17.00
2022-12-25T05:09:59.381Z,17.80
2022-12-25T05:12:56.246Z,20.42
2022-12-25T05:15:53.557Z,21.95
2022-12-25T05:18:51.904Z,17.33
2022-12-25T05:21:48.823Z,20.20
2022-12-25T05:24:45.682Z,19.08
2022-12-25T05:27:42.512Z,13.23
2022-12-25T05:30:39.454Z,14.35
2022-12-25T05:33:36.458Z,11.07
2022-12-25T05:36:33.262Z,11.93
2022-12-25T05:39:30.181Z,9.43
2022-12-25T05:42:27.123Z,10.82
2022-12-25T05:45:23.934Z,15.13
2022-12-25T05:48:20.896Z,10.15
2022-12-25T05:51:17.808Z,8.90
2022-12-25T05:54:14.641Z,11.50
2022-12-25T05:57:11.961Z,13.07
2022-12-25T06:00:09.733Z,8.02
2022-12-25T06:03:06.889Z,12.75
2022-12-25T06:06:04.348Z,9.70
2022-12-25T06:09:01.212Z,25.02
2022-12-25T06:11:58.117Z,13.77
2022-12-25T06:14:55.032Z,16.52
2022-12-25T06:17:51.873Z,20.13
2022-12-25T06:20:48.934Z,31.15
2022-12-25T06:23:50.713Z,17.90
2022-12-25T06:26:47.932Z,13.02
2022-12-25T06:29:44.794Z,17.27
2022-12-25T06:32:41.600Z,14.07
2022-12-25T06:35:40.274Z,45.35
2022-12-25T06:38:37.623Z,58.92
2022-12-25T06:41:34.473Z,16.83
2022-12-25T06:44:31.459Z,15.05
2022-12-25T06:47:28.344Z,32.30
2022-12-25T06:50:25.306Z,41.63
2022-12-25T06:53:22.436Z,50.47
2022-12-25T06:56:24.210Z,19.33
2022-12-25T06:59:21.401Z,20.38
2022-12-25T07:02:22.071Z,24.33
2022-12-25T07:05:18.978Z,17.55
2022-12-25T07:08:15.820Z,27.45
2022-12-25T07:11:12.655Z,18.60
2022-12-25T07:14:23.814Z,15.32
2022-12-25T07:17:22.369Z,15.00
2022-12-25T07:20:19.196Z,23.50
2022-12-25T07:23:16.045Z,17.60
2022-12-25T07:26:13.663Z,11.93
2022-12-25T07:29:10.499Z,16.40
2022-12-25T07:32:07.475Z,14.82
2022-12-25T07:35:04.738Z,11.60
2022-12-25T07:38:01.565Z,15.32
2022-12-25T07:40:58.424Z,13.98
2022-12-25T07:43:55.887Z,16.05
2022-12-25T07:46:52.714Z,16.88
2022-12-25T07:49:49.538Z,16.38
2022-12-25T07:52:47.022Z,13.70
2022-12-25T07:55:43.892Z,21.60
2022-12-25T07:58:41.617Z,15.68
2022-12-25T08:01:38.611Z,16.55
2022-12-25T08:04:35.596Z,17.60
2022-12-25T08:07:32.597Z,14.15
2022-12-25T08:10:29.778Z,12.77
2022-12-25T08:13:26.838Z,16.33
2022-12-25T08:16:24.321Z,17.60
2022-12-25T08:19:21.438Z,14.43
2022-12-25T08:22:18.243Z,15.00
2022-12-25T08:25:15.935Z,14.13
2022-12-25T08:28:12.848Z,14.77
2022-12-25T08:31:18.532Z,23.55
2022-12-25T08:34:15.890Z,14.70
2022-12-25T08:37:12.734Z,20.55
2022-12-25T08:40:10.211Z,21.75
2022-12-25T08:43:07.163Z,21.17
2022-12-25T08:46:04.747Z,16.05
2022-12-25T08:49:01.664Z,15.77
2022-12-25T08:51:58.580Z,16.23
2022-12-25T08:54:55.482Z,13.52
2022-12-25T08:57:54.275Z,11.48
2022-12-25T09:00:51.222Z,8.55
2022-12-25T09:03:48.275Z,11.52
2022-12-25T09:06:45.200Z,26.52
2022-12-25T09:09:43.544Z,14.57
2022-12-25T09:12:40.403Z,15.73
2022-12-25T09:15:39.193Z,11.63
2022-12-25T09:18:36.278Z,8.10
2022-12-25T09:21:33.123Z,7.10
2022-12-25T09:24:30.001Z,12.27
2022-12-25T09:27:27.035Z,9.48
2022-12-25T09:30:23.893Z,7.70
2022-12-25T09:33:22.184Z,10.40
2022-12-25T09:36:21.279Z,12.23
2022-12-25T09:39:18.205Z,9.05
2022-12-25T09:42:25.175Z,16.38
2022-12-25T09:45:35.830Z,12.38
2022-12-25T09:48:35.612Z,11.10
2022-12-25T09:51:36.538Z,11.52
2022-12-25T09:54:59.833Z,11.55
2022-12-25T09:58:08.703Z,7.60
2022-12-25T10:01:23.117Z,7.25
2022-12-25T10:04:40.784Z,6.15
2022-12-25T10:08:05.260Z,9.05
2022-12-25T10:11:37.517Z,8.82
2022-12-25T10:14:52.617Z,7.18
2022-12-25T10:18:44.666Z,9.73
2022-12-25T10:21:42.014Z,7.60
2022-12-25T10:24:55.825Z,10.30
2022-12-25T10:28:02.709Z,9.70
2022-12-25T10:31:18.021Z,5.85
2022-12-25T10:34:16.034Z,5.95
2022-12-25T10:37:13.199Z,7.65
2022-12-25T10:40:24.873Z,7.88
2022-12-25T10:43:32.907Z,7.82
2022-12-25T10:46:29.980Z,6.15
2022-12-25T10:49:38.518Z,8.80
2022-12-25T10:52:35.818Z,6.10
2022-12-25T10:55:33.316Z,15.15
2022-12-25T10:58:31.833Z,10.52
2022-12-25T11:01:28.920Z,6.78
2022-12-25T11:04:28.788Z,8.90
2022-12-25T11:07:27.158Z,9.45
2022-12-25T11:10:38.952Z,7.30
2022-12-25T11:13:47.537Z,8.05
2022-12-25T11:16:44.521Z,7.43
2022-12-25T11:19:56.723Z,10.80
2022-12-25T11:22:53.631Z,14.75
2022-12-25T11:26:18.159Z,9.07
2022-12-25T11:29:50.557Z,7.60
2022-12-25T11:32:55.578Z,8.35
2022-12-25T11:35:55.574Z,13.25
2022-12-25T11:38:52.688Z,7.20
2022-12-25T11:41:53.573Z,7.70
2022-12-25T11:45:05.131Z,10.30
2022-12-25T11:48:07.950Z,8.88
2022-12-25T11:51:07.155Z,8.32
2022-12-25T11:54:22.727Z,11.75
2022-12-25T11:57:19.863Z,6.38
2022-12-25T12:00:17.575Z,6.82
2022-12-25T12:03:28.663Z,6.97
2022-12-25T12:06:53.164Z,7.45
2022-12-25T12:10:19.510Z,7.78
2022-12-25T12:13:34.516Z,5.32
2022-12-25T12:16:31.706Z,6.15
2022-12-25T12:19:31.583Z,7.00
2022-12-25T12:22:28.927Z,6.68
2022-12-25T12:25:26.852Z,10.02
2022-12-25T12:28:29.491Z,7.22
2022-12-25T12:31:45.485Z,8.27
2022-12-25T12:34:49.642Z,8.48
2022-12-25T12:37:53.642Z,7.53
2022-12-25T12:41:04.609Z,9.80
2022-12-25T12:44:05.007Z,9.50
2022-12-25T12:47:02.340Z,10.45
2022-12-25T12:50:01.119Z,8.93
2022-12-25T12:52:58.334Z,7.85
2022-12-25T12:55:55.669Z,7.20
2022-12-25T12:58:52.537Z,7.00
2022-12-25T13:02:35.149Z,8.40
2022-12-25T13:05:48.081Z,7.10
2022-12-25T13:09:09.399Z,10.27
2022-12-25T13:12:08.950Z,13.73
2022-12-25T13:15:13.859Z,11.65
2022-12-25T13:18:13.484Z,18.27
2022-12-25T13:21:20.450Z,13.60
2022-12-25T13:24:23.575Z,17.17
2022-12-25T13:27:27.263Z,11.48
2022-12-25T13:30:25.322Z,9.00
2022-12-25T13:33:22.540Z,13.57
2022-12-25T13:36:19.532Z,18.85
2022-12-25T13:39:17.607Z,11.82
2022-12-25T13:42:23.077Z,20.67
2022-12-25T13:45:25.990Z,19.02
2022-12-25T13:48:24.091Z,6.22
2022-12-25T13:51:21.015Z,11.30
2022-12-25T13:54:19.224Z,35.58
2022-12-25T13:57:18.040Z,25.80
2022-12-25T14:00:35.630Z,13.35
2022-12-25T14:03:42.669Z,14.95
2022-12-25T14:06:39.514Z,11.98
2022-12-25T14:09:36.806Z,51.97
2022-12-25T14:12:34.176Z,9.38
2022-12-25T14:15:34.944Z,19.38
2022-12-25T14:21:41.763Z,8.80
2022-12-25T14:24:40.136Z,10.70
2022-12-25T14:27:37.319Z,6.10
2022-12-25T14:30:35.778Z,11.48
2022-12-25T14:33:38.426Z,12.75
2022-12-25T14:36:35.378Z,45.85
2022-12-25T14:39:38.305Z,16.83
2022-12-25T14:42:35.520Z,9.60
2022-12-25T14:45:38.768Z,6.88
2022-12-25T14:48:35.647Z,6.45
2022-12-25T14:51:35.313Z,7.47
2022-12-25T14:54:32.233Z,6.88
2022-12-25T14:57:37.400Z,6.50
2022-12-25T15:00:38.268Z,6.53
2022-12-25T15:06:35.661Z,13.70
2022-12-25T15:09:33.162Z,9.88
2022-12-25T15:12:30.402Z,7.65
2022-12-25T15:15:28.115Z,7.40
2022-12-25T15:18:30.637Z,14.13
2022-12-25T15:21:31.706Z,7.45
2022-12-25T15:24:28.616Z,6.65
2022-12-25T15:27:25.468Z,5.43
2022-12-25T15:30:22.548Z,5.28
2022-12-25T15:33:19.744Z,5.43
2022-12-25T15:36:16.692Z,4.43
2022-12-25T15:39:13.640Z,4.78
2022-12-25T15:42:23.606Z,6.22
2022-12-25T15:45:24.390Z,5.40
2022-12-25T15:51:18.190Z,8.60
2022-12-25T15:54:15.030Z,5.32
2022-12-25T15:57:30.664Z,6.85
2022-12-25T16:00:27.701Z,4.85
2022-12-25T16:03:24.614Z,9.48
2022-12-25T16:06:21.453Z,4.30
2022-12-25T16:09:22.456Z,4.53
2022-12-25T16:12:19.837Z,9.52
2022-12-25T16:15:16.934Z,10.73
2022-12-25T16:18:14.286Z,7.93
2022-12-25T16:21:19.092Z,4.50
2022-12-25T16:24:16.319Z,7.25
2022-12-25T16:27:13.157Z,10.05
2022-12-25T16:30:12.871Z,8.70
2022-12-25T16:33:14.063Z,9.02
2022-12-25T16:36:10.900Z,5.13
2022-12-25T16:39:07.831Z,5.20
2022-12-25T16:42:04.803Z,4.55
2022-12-25T16:45:02.155Z,16.73
2022-12-25T16:47:59.211Z,9.90
2022-12-25T16:50:56.045Z,12.98
2022-12-25T16:53:53.545Z,7.47
2022-12-25T16:56:51.747Z,15.25
2022-12-25T16:59:48.807Z,6.78
2022-12-25T17:02:46.072Z,10.95
2022-12-25T17:05:43.179Z,8.63
2022-12-25T17:08:42.258Z,6.35
2022-12-25T17:11:42.405Z,6.55
2022-12-25T17:14:39.273Z,20.45
2022-12-25T17:17:37.349Z,24.90
2022-12-25T17:20:36.147Z,11.82
2022-12-25T17:23:33.167Z,27.60
2022-12-25T17:26:31.026Z,24.10
2022-12-25T17:29:28.141Z,4.65
2022-12-25T17:32:25.128Z,6.88
2022-12-25T17:35:23.430Z,5.95
2022-12-25T17:38:22.609Z,5.07
2022-12-25T17:41:20.798Z,5.78
2022-12-25T17:44:18.942Z,11.35
2022-12-25T17:47:17.663Z,7.72
2022-12-25T17:50:14.578Z,5.43
2022-12-25T17:53:11.768Z,5.28
2022-12-25T17:56:15.589Z,6.78
2022-12-25T17:59:18.112Z,6.30
2022-12-25T18:02:15.376Z,7.97
2022-12-25T18:05:12.287Z,7.50
2022-12-25T18:08:09.376Z,10.55
2022-12-25T18:11:10.461Z,8.40
2022-12-25T18:14:09.662Z,7.80
2022-12-25T18:17:06.498Z,6.93
2022-12-25T18:20:07.302Z,9.10
2022-12-25T18:26:07.117Z,8.48
2022-12-25T18:29:04.814Z,6.43
2022-12-25T18:32:01.719Z,13.27
2022-12-25T18:35:05.529Z,11.55
2022-12-25T18:38:05.876Z,8.95
2022-12-25T18:41:06.807Z,9.68
2022-12-25T18:44:03.682Z,8.15
2022-12-25T18:47:00.628Z,8.40
2022-12-25T18:49:57.522Z,6.60
2022-12-25T18:52:54.335Z,6.55
2022-12-25T18:55:51.255Z,9.23
2022-12-25T18:58:51.479Z,8.30
2022-12-25T19:01:48.470Z,8.10
2022-12-25T19:04:45.738Z,8.93
2022-12-25T19:07:43.134Z,6.57
2022-12-25T19:10:41.010Z,5.88
2022-12-25T19:13:37.947Z,10.20
2022-12-25T19:16:35.542Z,7.40
2022-12-25T19:19:32.669Z,8.23
2022-12-25T19:22:29.516Z,6.07
2022-12-25T19:25:26.361Z,6.22
2022-12-25T19:28:25.001Z,10.55
2022-12-25T19:31:23.083Z,5.45
2022-12-25T19:34:19.938Z,7.35
2022-12-25T19:37:16.804Z,7.35
2022-12-25T19:40:13.681Z,5.50
2022-12-25T19:43:10.583Z,8.48
2022-12-25T19:46:14.656Z,6.53
2022-12-25T19:49:14.755Z,7.38
2022-12-25T19:52:13.308Z,7.60
2022-12-25T19:55:10.183Z,6.00
2022-12-25T19:58:06.999Z,6.60
2022-12-25T20:01:11.798Z,7.20
2022-12-25T20:04:09.880Z,6.45
2022-12-25T20:07:06.706Z,10.65
2022-12-25T20:10:03.645Z,9.52
2022-12-25T20:13:00.488Z,10.32
2022-12-25T20:16:01.393Z,11.38
2022-12-25T20:18:59.299Z,10.77
2022-12-25T20:21:56.157Z,9.63
2022-12-25T20:24:52.993Z,6.65
2022-12-25T20:27:49.815Z,7.57
2022-12-25T20:30:46.630Z,10.70
2022-12-25T20:33:44.142Z,7.40
2022-12-25T20:36:40.993Z,8.52
2022-12-25T20:39:38.625Z,7.22
2022-12-25T20:42:35.809Z,10.85
2022-12-25T20:45:32.669Z,7.10
2022-12-25T20:48:29.537Z,7.20
2022-12-25T20:51:27.200Z,9.98
2022-12-25T20:54:24.222Z,7.65
2022-12-25T20:57:21.030Z,11.40
2022-12-25T21:00:17.924Z,12.15
2022-12-25T21:03:14.773Z,8.30
2022-12-25T21:06:12.864Z,6.32
2022-12-25T21:09:09.710Z,6.25
2022-12-25T21:12:07.448Z,6.90
2022-12-25T21:15:08.915Z,5.85
2022-12-25T21:18:08.559Z,9.30
2022-12-25T21:21:07.479Z,9.60
2022-12-25T21:24:04.745Z,9.95
2022-12-25T21:27:01.549Z,7.85
2022-12-25T21:29:58.387Z,9.48
2022-12-25T21:33:17.048Z,6.22
2022-12-25T21:36:14.191Z,7.95
2022-12-25T21:39:11.843Z,11.25
2022-12-25T21:42:08.652Z,8.65
2022-12-25T21:45:05.911Z,6.93
2022-12-25T21:48:03.675Z,7.47
2022-12-25T21:51:24.790Z,6.03
2022-12-25T21:57:20.436Z,8.35
2022-12-25T22:00:17.319Z,8.85
2022-12-25T22:03:14.181Z,13.25
2022-12-25T22:06:30.748Z,7.88
2022-12-25T22:09:27.632Z,15.60
2022-12-25T22:12:43.311Z,7.97
2022-12-25T22:15:58.855Z,8.07
2022-12-25T22:19:14.075Z,10.48
2022-12-25T22:22:11.812Z,10.65
2022-12-25T22:25:10.760Z,13.57
2022-12-25T22:28:08.467Z,11.23
2022-12-25T22:31:06.473Z,10.75
2022-12-25T22:34:03.347Z,9.85
2022-12-25T22:37:00.548Z,7.82
2022-12-25T22:39:57.913Z,17.08
2022-12-25T22:42:56.543Z,7.97
2022-12-25T22:45:53.422Z,10.05
2022-12-25T22:48:50.286Z,6.85
2022-12-25T22:51:48.877Z,7.03
2022-12-25T22:54:45.700Z,8.27
2022-12-25T22:57:42.507Z,6.82
2022-12-25T23:00:46.481Z,8.13
2022-12-25T23:03:43.576Z,6.95
2022-12-25T23:06:40.615Z,8.23
2022-12-25T23:09:37.460Z,12.23
2022-12-25T23:13:06.723Z,8.75
2022-12-25T23:16:04.869Z,7.38
2022-12-25T23:19:20.303Z,7.85
2022-12-25T23:22:35.442Z,7.35
2022-12-25T23:25:52.486Z,7.68
2022-12-25T23:29:07.676Z,8.15
2022-12-25T23:32:13.772Z,8.48
2022-12-25T23:35:11.811Z,9.65
2022-12-25T23:38:08.648Z,10.80
2022-12-25T23:41:05.543Z,8.65
2022-12-25T23:44:02.363Z,7.35
2022-12-25T23:46:59.426Z,10.27
2022-12-25T23:49:56.308Z,8.10
2022-12-25T23:52:53.127Z,8.90
2022-12-25T23:55:55.558Z,7.30
2022-12-25T23:58:52.829Z,8.82
